sensor_id;sensor_type;location;lat;lon;timestamp;pressure;altitude;pressure_sealevel;temperature;humidity
28267;BME280;15525;45.568;5.448;2023-01-30T00:00:50;99061.91;;;6.20;53.10
28267;BME280;15525;45.568;5.448;2023-01-30T00:03:17;99070.06;;;6.25;52.76
28267;BME280;15525;45.568;5.448;2023-01-30T00:05:42;99063.88;;;6.07;53.17
28267;BME280;15525;45.568;5.448;2023-01-30T00:08:08;99063.38;;;5.85;53.86
28267;BME280;15525;45.568;5.448;2023-01-30T00:10:33;99058.91;;;5.79;53.95
28267;BME280;15525;45.568;5.448;2023-01-30T00:12:58;99050.72;;;5.87;53.68
28267;BME280;15525;45.568;5.448;2023-01-30T00:15:24;99064.88;;;6.06;53.67
28267;BME280;15525;45.568;5.448;2023-01-30T00:17:49;99054.31;;;5.62;54.26
28267;BME280;15525;45.568;5.448;2023-01-30T00:20:15;99068.03;;;5.96;53.82
28267;BME280;15525;45.568;5.448;2023-01-30T00:22:40;99052.78;;;6.10;53.38
28267;BME280;15525;45.568;5.448;2023-01-30T00:25:06;99048.47;;;6.15;53.92
28267;BME280;15525;45.568;5.448;2023-01-30T00:27:31;99045.81;;;5.84;54.03
28267;BME280;15525;45.568;5.448;2023-01-30T00:29:57;99041.34;;;5.78;54.08
28267;BME280;15525;45.568;5.448;2023-01-30T00:32:22;99039.59;;;5.97;53.91
28267;BME280;15525;45.568;5.448;2023-01-30T00:34:50;99041.03;;;6.24;53.99
28267;BME280;15525;45.568;5.448;2023-01-30T00:37:16;99041.38;;;6.34;53.55
28267;BME280;15525;45.568;5.448;2023-01-30T00:39:41;99031.34;;;6.36;53.31
28267;BME280;15525;45.568;5.448;2023-01-30T00:42:08;99024.72;;;6.45;53.58
28267;BME280;15525;45.568;5.448;2023-01-30T00:44:52;99033.25;;;6.47;54.25
28267;BME280;15525;45.568;5.448;2023-01-30T00:47:36;99035.94;;;6.47;53.77
28267;BME280;15525;45.568;5.448;2023-01-30T00:50:01;99033.78;;;6.37;53.49
28267;BME280;15525;45.568;5.448;2023-01-30T00:52:27;99024.34;;;6.17;53.27
28267;BME280;15525;45.568;5.448;2023-01-30T00:54:52;99040.91;;;5.88;53.99
28267;BME280;15525;45.568;5.448;2023-01-30T00:57:18;99038.72;;;6.09;53.48
28267;BME280;15525;45.568;5.448;2023-01-30T00:59:43;99047.59;;;6.21;53.40
28267;BME280;15525;45.568;5.448;2023-01-30T01:02:09;99047.53;;;6.28;53.32
28267;BME280;15525;45.568;5.448;2023-01-30T01:04:34;99045.44;;;6.12;53.31
28267;BME280;15525;45.568;5.448;2023-01-30T01:07:13;99042.31;;;6.15;53.48
28267;BME280;15525;45.568;5.448;2023-01-30T01:09:39;99041.97;;;6.11;53.81
28267;BME280;15525;45.568;5.448;2023-01-30T01:12:05;99051.34;;;6.14;53.43
28267;BME280;15525;45.568;5.448;2023-01-30T01:14:31;99050.34;;;5.84;54.06
28267;BME280;15525;45.568;5.448;2023-01-30T01:16:57;99053.38;;;5.87;54.11
28267;BME280;15525;45.568;5.448;2023-01-30T01:19:22;99053.44;;;5.68;54.59
28267;BME280;15525;45.568;5.448;2023-01-30T01:21:47;99048.38;;;5.60;54.42
28267;BME280;15525;45.568;5.448;2023-01-30T01:24:14;99057.28;;;5.78;54.44
28267;BME280;15525;45.568;5.448;2023-01-30T01:26:40;99068.97;;;6.08;53.99
28267;BME280;15525;45.568;5.448;2023-01-30T01:29:06;99061.91;;;6.20;53.99
28267;BME280;15525;45.568;5.448;2023-01-30T01:31:34;99050.88;;;5.92;53.86
28267;BME280;15525;45.568;5.448;2023-01-30T01:33:59;99058.41;;;6.02;53.77
28267;BME280;15525;45.568;5.448;2023-01-30T01:36:25;99068.41;;;6.00;54.05
28267;BME280;15525;45.568;5.448;2023-01-30T01:38:50;99065.19;;;5.47;55.21
28267;BME280;15525;45.568;5.448;2023-01-30T01:41:17;99056.41;;;5.91;54.40
28267;BME280;15525;45.568;5.448;2023-01-30T01:44:05;99072.28;;;6.04;54.30
28267;BME280;15525;45.568;5.448;2023-01-30T01:46:48;99070.19;;;6.06;54.10
28267;BME280;15525;45.568;5.448;2023-01-30T01:49:29;99076.16;;;6.01;53.82
28267;BME280;15525;45.568;5.448;2023-01-30T01:52:03;99069.66;;;5.53;54.79
28267;BME280;15525;45.568;5.448;2023-01-30T01:54:56;99072.53;;;5.96;53.88
28267;BME280;15525;45.568;5.448;2023-01-30T01:57:25;99065.88;;;5.80;54.13
28267;BME280;15525;45.568;5.448;2023-01-30T01:59:55;99065.25;;;5.85;53.74
28267;BME280;15525;45.568;5.448;2023-01-30T02:02:24;99056.75;;;5.63;54.26
28267;BME280;15525;45.568;5.448;2023-01-30T02:04:54;99047.59;;;5.59;54.73
28267;BME280;15525;45.568;5.448;2023-01-30T02:07:41;99043.59;;;5.37;55.68
28267;BME280;15525;45.568;5.448;2023-01-30T02:10:17;99031.63;;;5.66;55.06
28267;BME280;15525;45.568;5.448;2023-01-30T02:12:44;99021.69;;;5.48;55.25
28267;BME280;15525;45.568;5.448;2023-01-30T02:15:10;99021.38;;;5.32;55.77
28267;BME280;15525;45.568;5.448;2023-01-30T02:17:36;99033.53;;;5.90;54.84
28267;BME280;15525;45.568;5.448;2023-01-30T02:20:09;99024.06;;;5.63;54.74
28267;BME280;15525;45.568;5.448;2023-01-30T02:25:47;99035.75;;;5.55;54.39
28267;BME280;15525;45.568;5.448;2023-01-30T02:28:27;99038.97;;;5.64;54.69
28267;BME280;15525;45.568;5.448;2023-01-30T02:31:10;99034.09;;;5.61;54.63
28267;BME280;15525;45.568;5.448;2023-01-30T02:36:28;99042.25;;;5.66;54.32
28267;BME280;15525;45.568;5.448;2023-01-30T02:41:38;99047.03;;;5.88;54.28
28267;BME280;15525;45.568;5.448;2023-01-30T02:44:17;99039.31;;;5.74;54.18
28267;BME280;15525;45.568;5.448;2023-01-30T02:46:55;99050.72;;;5.87;53.96
28267;BME280;15525;45.568;5.448;2023-01-30T02:49:37;99051.34;;;5.83;53.88
28267;BME280;15525;45.568;5.448;2023-01-30T02:52:05;99052.78;;;5.79;53.90
28267;BME280;15525;45.568;5.448;2023-01-30T02:54:33;99057.09;;;5.36;55.10
28267;BME280;15525;45.568;5.448;2023-01-30T02:56:59;99057.03;;;5.49;54.91
28267;BME280;15525;45.568;5.448;2023-01-30T02:59:38;99045.22;;;5.82;54.45
28267;BME280;15525;45.568;5.448;2023-01-30T03:02:18;99048.38;;;5.60;54.58
28267;BME280;15525;45.568;5.448;2023-01-30T03:04:51;99046.66;;;5.85;54.49
28267;BME280;15525;45.568;5.448;2023-01-30T03:10:17;99046.88;;;5.77;54.24
28267;BME280;15525;45.568;5.448;2023-01-30T03:13:15;99056.25;;;5.79;54.51
28267;BME280;15525;45.568;5.448;2023-01-30T03:15:54;99055.41;;;5.85;54.22
28267;BME280;15525;45.568;5.448;2023-01-30T03:18:22;99063.91;;;5.63;54.69
28267;BME280;15525;45.568;5.448;2023-01-30T03:20:48;99064.31;;;5.60;54.46
28267;BME280;15525;45.568;5.448;2023-01-30T03:23:14;99074.38;;;5.51;54.69
28267;BME280;15525;45.568;5.448;2023-01-30T03:25:41;99074.09;;;5.66;54.39
28267;BME280;15525;45.568;5.448;2023-01-30T03:28:07;99075.75;;;5.10;55.14
28267;BME280;15525;45.568;5.448;2023-01-30T03:30:33;99090.66;;;5.11;55.80
28267;BME280;15525;45.568;5.448;2023-01-30T03:32:59;99108.88;;;5.58;54.71
28267;BME280;15525;45.568;5.448;2023-01-30T03:35:24;99113.31;;;5.64;54.78
28267;BME280;15525;45.568;5.448;2023-01-30T03:37:50;99113.19;;;5.46;54.79
28267;BME280;15525;45.568;5.448;2023-01-30T03:40:16;99123.59;;;5.54;54.79
28267;BME280;15525;45.568;5.448;2023-01-30T03:42:42;99118.44;;;5.65;54.53
28267;BME280;15525;45.568;5.448;2023-01-30T03:45:08;99126.41;;;5.59;54.91
28267;BME280;15525;45.568;5.448;2023-01-30T03:47:34;99132.72;;;5.71;54.29
28267;BME280;15525;45.568;5.448;2023-01-30T03:49:59;99160.75;;;5.54;54.72
28267;BME280;15525;45.568;5.448;2023-01-30T03:52:24;99167.28;;;5.58;54.74
28267;BME280;15525;45.568;5.448;2023-01-30T03:54:50;99168.25;;;5.76;54.28
28267;BME280;15525;45.568;5.448;2023-01-30T03:57:15;99167.41;;;5.12;54.62
28267;BME280;15525;45.568;5.448;2023-01-30T03:59:41;99166.69;;;5.56;54.43
28267;BME280;15525;45.568;5.448;2023-01-30T04:02:06;99158.31;;;5.46;54.19
28267;BME280;15525;45.568;5.448;2023-01-30T04:04:33;99135.41;;;5.58;54.00
28267;BME280;15525;45.568;5.448;2023-01-30T04:06:58;99140.97;;;5.43;53.84
28267;BME280;15525;45.568;5.448;2023-01-30T04:09:24;99125.34;;;5.66;54.57
28267;BME280;15525;45.568;5.448;2023-01-30T04:11:49;99129.28;;;6.08;53.73
28267;BME280;15525;45.568;5.448;2023-01-30T04:14:15;99137.59;;;6.18;53.35
28267;BME280;15525;45.568;5.448;2023-01-30T04:16:40;99142.97;;;6.05;53.09
28267;BME280;15525;45.568;5.448;2023-01-30T04:19:06;99137.69;;;5.98;53.37
28267;BME280;15525;45.568;5.448;2023-01-30T04:21:31;99135.25;;;5.97;53.13
28267;BME280;15525;45.568;5.448;2023-01-30T04:23:57;99150.19;;;5.98;53.43
28267;BME280;15525;45.568;5.448;2023-01-30T04:26:22;99168.34;;;6.01;53.08
28267;BME280;15525;45.568;5.448;2023-01-30T04:28:47;99155.44;;;5.54;53.51
28267;BME280;15525;45.568;5.448;2023-01-30T04:31:13;99128.91;;;5.47;53.02
28267;BME280;15525;45.568;5.448;2023-01-30T04:33:38;99146.59;;;5.73;53.44
28267;BME280;15525;45.568;5.448;2023-01-30T04:36:05;99150.94;;;5.61;53.51
28267;BME280;15525;45.568;5.448;2023-01-30T04:38:32;99131.63;;;5.91;53.20
28267;BME280;15525;45.568;5.448;2023-01-30T04:40:58;99112.81;;;5.93;52.97
28267;BME280;15525;45.568;5.448;2023-01-30T04:43:25;99134.53;;;5.70;53.25
28267;BME280;15525;45.568;5.448;2023-01-30T04:45:51;99131.41;;;5.36;54.22
28267;BME280;15525;45.568;5.448;2023-01-30T04:48:18;99120.75;;;5.42;53.69
28267;BME280;15525;45.568;5.448;2023-01-30T04:50:47;99131.28;;;5.68;53.55
28267;BME280;15525;45.568;5.448;2023-01-30T04:53:13;99122.16;;;5.51;53.61
28267;BME280;15525;45.568;5.448;2023-01-30T04:55:39;99122.31;;;5.63;53.33
28267;BME280;15525;45.568;5.448;2023-01-30T04:58:05;99112.47;;;5.76;53.12
28267;BME280;15525;45.568;5.448;2023-01-30T05:00:30;99118.13;;;5.93;52.95
28267;BME280;15525;45.568;5.448;2023-01-30T05:02:56;99107.50;;;5.93;52.98
28267;BME280;15525;45.568;5.448;2023-01-30T05:05:22;99108.69;;;5.53;53.55
28267;BME280;15525;45.568;5.448;2023-01-30T05:07:48;99103.56;;;5.58;53.20
28267;BME280;15525;45.568;5.448;2023-01-30T05:10:13;99095.53;;;5.14;53.47
28267;BME280;15525;45.568;5.448;2023-01-30T05:12:39;99086.63;;;5.46;53.23
28267;BME280;15525;45.568;5.448;2023-01-30T05:15:05;99083.66;;;5.73;53.17
28267;BME280;15525;45.568;5.448;2023-01-30T05:17:31;99078.44;;;5.54;53.04
28267;BME280;15525;45.568;5.448;2023-01-30T05:19:57;99065.25;;;5.78;53.04
28267;BME280;15525;45.568;5.448;2023-01-30T05:22:22;99067.69;;;5.80;52.67
28267;BME280;15525;45.568;5.448;2023-01-30T05:24:47;99064.94;;;5.99;52.71
28267;BME280;15525;45.568;5.448;2023-01-30T05:27:13;99083.72;;;5.60;53.03
28267;BME280;15525;45.568;5.448;2023-01-30T05:29:38;99094.31;;;5.67;53.22
28267;BME280;15525;45.568;5.448;2023-01-30T05:32:04;99081.13;;;5.47;53.53
28267;BME280;15525;45.568;5.448;2023-01-30T05:34:29;99052.75;;;5.48;53.46
28267;BME280;15525;45.568;5.448;2023-01-30T05:36:55;99078.03;;;5.00;54.61
28267;BME280;15525;45.568;5.448;2023-01-30T05:39:20;99065.03;;;5.36;54.12
28267;BME280;15525;45.568;5.448;2023-01-30T05:41:46;99055.41;;;5.48;54.06
28267;BME280;15525;45.568;5.448;2023-01-30T05:44:11;99051.38;;;5.39;54.53
28267;BME280;15525;45.568;5.448;2023-01-30T05:46:36;99063.94;;;5.12;55.04
28267;BME280;15525;45.568;5.448;2023-01-30T05:49:02;99058.69;;;4.86;55.96
28267;BME280;15525;45.568;5.448;2023-01-30T05:51:28;99053.22;;;5.32;55.01
28267;BME280;15525;45.568;5.448;2023-01-30T05:53:54;99067.75;;;5.23;54.96
28267;BME280;15525;45.568;5.448;2023-01-30T05:56:19;99063.19;;;5.43;54.70
28267;BME280;15525;45.568;5.448;2023-01-30T05:58:53;99052.34;;;4.94;56.01
28267;BME280;15525;45.568;5.448;2023-01-30T06:01:19;99056.66;;;4.75;56.59
28267;BME280;15525;45.568;5.448;2023-01-30T06:03:45;99046.44;;;4.92;56.09
28267;BME280;15525;45.568;5.448;2023-01-30T06:06:11;99056.47;;;5.40;55.42
28267;BME280;15525;45.568;5.448;2023-01-30T06:08:37;99045.69;;;5.29;55.59
28267;BME280;15525;45.568;5.448;2023-01-30T06:11:06;99046.66;;;5.34;55.34
28267;BME280;15525;45.568;5.448;2023-01-30T06:13:32;99057.75;;;5.25;55.52
28267;BME280;15525;45.568;5.448;2023-01-30T06:15:58;99036.91;;;4.65;56.37
28267;BME280;15525;45.568;5.448;2023-01-30T06:18:23;99060.13;;;4.76;56.46
28267;BME280;15525;45.568;5.448;2023-01-30T06:20:50;99042.94;;;4.98;56.30
28267;BME280;15525;45.568;5.448;2023-01-30T06:23:16;99070.56;;;4.51;57.07
28267;BME280;15525;45.568;5.448;2023-01-30T06:25:42;99072.16;;;4.72;56.67
28267;BME280;15525;45.568;5.448;2023-01-30T06:28:08;99072.34;;;4.90;56.67
28267;BME280;15525;45.568;5.448;2023-01-30T06:30:34;99071.94;;;4.80;56.44
28267;BME280;15525;45.568;5.448;2023-01-30T06:32:59;99077.22;;;5.06;55.96
28267;BME280;15525;45.568;5.448;2023-01-30T06:35:25;99074.78;;;4.91;56.67
28267;BME280;15525;45.568;5.448;2023-01-30T06:37:50;99076.00;;;4.95;56.06
28267;BME280;15525;45.568;5.448;2023-01-30T06:40:16;99067.91;;;4.64;56.62
28267;BME280;15525;45.568;5.448;2023-01-30T06:42:48;99058.91;;;4.65;56.62
28267;BME280;15525;45.568;5.448;2023-01-30T06:45:15;99049.75;;;4.55;56.97
28267;BME280;15525;45.568;5.448;2023-01-30T06:47:45;99068.84;;;4.89;56.22
28267;BME280;15525;45.568;5.448;2023-01-30T06:50:11;99080.91;;;4.92;56.36
28267;BME280;15525;45.568;5.448;2023-01-30T06:52:44;99088.28;;;4.64;56.89
28267;BME280;15525;45.568;5.448;2023-01-30T06:55:11;99099.72;;;4.64;57.22
28267;BME280;15525;45.568;5.448;2023-01-30T06:57:37;99106.44;;;4.67;56.60
28267;BME280;15525;45.568;5.448;2023-01-30T07:00:05;99092.78;;;4.50;57.49
28267;BME280;15525;45.568;5.448;2023-01-30T07:02:30;99096.84;;;4.66;56.41
28267;BME280;15525;45.568;5.448;2023-01-30T07:05:00;99093.63;;;4.44;57.21
28267;BME280;15525;45.568;5.448;2023-01-30T07:07:25;99106.25;;;4.49;56.91
28267;BME280;15525;45.568;5.448;2023-01-30T07:09:51;99118.25;;;4.71;57.00
28267;BME280;15525;45.568;5.448;2023-01-30T07:12:16;99107.88;;;4.69;56.37
28267;BME280;15525;45.568;5.448;2023-01-30T07:14:41;99099.47;;;4.92;56.04
28267;BME280;15525;45.568;5.448;2023-01-30T07:17:07;99112.13;;;4.83;56.24
28267;BME280;15525;45.568;5.448;2023-01-30T07:19:32;99109.66;;;4.95;55.84
28267;BME280;15525;45.568;5.448;2023-01-30T07:21:58;99128.44;;;4.93;56.18
28267;BME280;15525;45.568;5.448;2023-01-30T07:24:23;99118.44;;;4.37;57.03
28267;BME280;15525;45.568;5.448;2023-01-30T07:26:48;99120.91;;;4.97;56.19
28267;BME280;15525;45.568;5.448;2023-01-30T07:29:14;99133.16;;;4.72;56.12
28267;BME280;15525;45.568;5.448;2023-01-30T07:31:39;99131.53;;;4.58;56.73
28267;BME280;15525;45.568;5.448;2023-01-30T07:34:05;99137.22;;;4.74;56.33
28267;BME280;15525;45.568;5.448;2023-01-30T07:36:30;99130.09;;;4.68;56.40
28267;BME280;15525;45.568;5.448;2023-01-30T07:38:58;99136.81;;;4.45;57.32
28267;BME280;15525;45.568;5.448;2023-01-30T07:41:24;99143.75;;;4.85;56.62
28267;BME280;15525;45.568;5.448;2023-01-30T07:43:49;99134.75;;;5.05;55.82
28267;BME280;15525;45.568;5.448;2023-01-30T07:46:14;99143.56;;;4.80;56.14
28267;BME280;15525;45.568;5.448;2023-01-30T07:48:43;99131.06;;;5.00;55.42
28267;BME280;15525;45.568;5.448;2023-01-30T07:51:08;99116.31;;;5.30;55.02
28267;BME280;15525;45.568;5.448;2023-01-30T07:53:34;99123.09;;;5.19;55.05
28267;BME280;15525;45.568;5.448;2023-01-30T07:56:05;99128.56;;;5.31;54.82
28267;BME280;15525;45.568;5.448;2023-01-30T07:58:31;99133.09;;;5.11;54.89
28267;BME280;15525;45.568;5.448;2023-01-30T08:00:56;99151.44;;;5.19;55.15
28267;BME280;15525;45.568;5.448;2023-01-30T08:03:22;99144.75;;;5.03;55.19
28267;BME280;15525;45.568;5.448;2023-01-30T08:05:47;99129.91;;;4.83;55.75
28267;BME280;15525;45.568;5.448;2023-01-30T08:08:13;99130.50;;;4.59;56.14
28267;BME280;15525;45.568;5.448;2023-01-30T08:10:38;99139.19;;;5.18;54.80
28267;BME280;15525;45.568;5.448;2023-01-30T08:13:04;99160.88;;;4.89;55.54
28267;BME280;15525;45.568;5.448;2023-01-30T08:15:29;99174.31;;;4.55;56.10
28267;BME280;15525;45.568;5.448;2023-01-30T08:17:57;99185.16;;;4.66;56.20
28267;BME280;15525;45.568;5.448;2023-01-30T08:20:23;99187.22;;;5.03;55.10
28267;BME280;15525;45.568;5.448;2023-01-30T08:22:49;99183.91;;;5.14;54.82
28267;BME280;15525;45.568;5.448;2023-01-30T08:25:14;99197.56;;;5.31;54.94
28267;BME280;15525;45.568;5.448;2023-01-30T08:27:40;99190.44;;;5.31;54.95
28267;BME280;15525;45.568;5.448;2023-01-30T08:30:06;99180.63;;;5.19;55.04
28267;BME280;15525;45.568;5.448;2023-01-30T08:32:31;99178.78;;;5.26;54.60
28267;BME280;15525;45.568;5.448;2023-01-30T08:34:57;99193.31;;;4.84;55.47
28267;BME280;15525;45.568;5.448;2023-01-30T08:37:22;99180.59;;;5.45;54.73
28267;BME280;15525;45.568;5.448;2023-01-30T08:39:48;99193.84;;;5.45;54.46
28267;BME280;15525;45.568;5.448;2023-01-30T08:42:13;99196.75;;;5.30;54.57
28267;BME280;15525;45.568;5.448;2023-01-30T08:44:38;99204.03;;;5.61;54.14
28267;BME280;15525;45.568;5.448;2023-01-30T08:47:04;99199.31;;;5.63;54.25
28267;BME280;15525;45.568;5.448;2023-01-30T08:49:29;99217.25;;;5.74;53.47
28267;BME280;15525;45.568;5.448;2023-01-30T08:51:55;99217.84;;;5.95;53.47
28267;BME280;15525;45.568;5.448;2023-01-30T08:54:20;99219.97;;;5.61;53.96
28267;BME280;15525;45.568;5.448;2023-01-30T08:56:46;99191.03;;;5.20;54.38
28267;BME280;15525;45.568;5.448;2023-01-30T08:59:11;99218.78;;;5.44;54.25
28267;BME280;15525;45.568;5.448;2023-01-30T09:01:37;99221.84;;;5.34;53.87
28267;BME280;15525;45.568;5.448;2023-01-30T09:04:03;99210.66;;;5.13;53.62
28267;BME280;15525;45.568;5.448;2023-01-30T09:06:28;99209.81;;;5.25;53.33
28267;BME280;15525;45.568;5.448;2023-01-30T09:08:54;99217.78;;;5.32;52.74
28267;BME280;15525;45.568;5.448;2023-01-30T09:11:19;99213.50;;;5.31;52.63
28267;BME280;15525;45.568;5.448;2023-01-30T09:13:44;99210.25;;;4.77;52.25
28267;BME280;15525;45.568;5.448;2023-01-30T09:16:11;99206.56;;;5.30;52.61
28267;BME280;15525;45.568;5.448;2023-01-30T09:18:38;99201.28;;;4.71;52.71
28267;BME280;15525;45.568;5.448;2023-01-30T09:21:04;99217.56;;;4.55;52.80
28267;BME280;15525;45.568;5.448;2023-01-30T09:23:30;99206.19;;;5.07;52.49
28267;BME280;15525;45.568;5.448;2023-01-30T09:25:55;99206.75;;;5.22;50.97
28267;BME280;15525;45.568;5.448;2023-01-30T09:28:21;99208.13;;;5.57;50.78
28267;BME280;15525;45.568;5.448;2023-01-30T09:30:47;99225.78;;;5.06;51.37
28267;BME280;15525;45.568;5.448;2023-01-30T09:33:12;99219.19;;;5.47;51.05
28267;BME280;15525;45.568;5.448;2023-01-30T09:35:40;99212.97;;;5.86;50.26
28267;BME280;15525;45.568;5.448;2023-01-30T09:38:06;99205.09;;;6.10;49.96
28267;BME280;15525;45.568;5.448;2023-01-30T09:40:32;99229.59;;;5.49;51.11
28267;BME280;15525;45.568;5.448;2023-01-30T09:43:16;99233.06;;;5.49;51.01
28267;BME280;15525;45.568;5.448;2023-01-30T09:48:35;99234.22;;;5.73;49.88
28267;BME280;15525;45.568;5.448;2023-01-30T09:51:17;99236.59;;;5.11;50.98
28267;BME280;15525;45.568;5.448;2023-01-30T09:54:13;99233.50;;;5.07;50.84
28267;BME280;15525;45.568;5.448;2023-01-30T09:56:40;99224.13;;;4.72;50.99
28267;BME280;15525;45.568;5.448;2023-01-30T09:59:06;99227.78;;;4.91;51.91
28267;BME280;15525;45.568;5.448;2023-01-30T10:04:28;99230.97;;;5.71;50.16
28267;BME280;15525;45.568;5.448;2023-01-30T10:06:58;99233.69;;;5.32;49.93
28267;BME280;15525;45.568;5.448;2023-01-30T10:09:29;99240.59;;;5.65;49.96
28267;BME280;15525;45.568;5.448;2023-01-30T10:14:41;99250.06;;;6.12;48.88
28267;BME280;15525;45.568;5.448;2023-01-30T10:19:50;99218.59;;;5.32;50.21
28267;BME280;15525;45.568;5.448;2023-01-30T10:22:36;99225.22;;;5.87;50.04
28267;BME280;15525;45.568;5.448;2023-01-30T10:25:30;99221.56;;;5.88;49.26
28267;BME280;15525;45.568;5.448;2023-01-30T10:28:03;99222.28;;;6.08;48.97
28267;BME280;15525;45.568;5.448;2023-01-30T10:30:29;99241.88;;;5.24;50.38
28267;BME280;15525;45.568;5.448;2023-01-30T10:33:10;99224.47;;;5.60;50.54
28267;BME280;15525;45.568;5.448;2023-01-30T10:35:40;99238.94;;;5.84;49.96
28267;BME280;15525;45.568;5.448;2023-01-30T10:38:14;99247.13;;;5.82;50.19
28267;BME280;15525;45.568;5.448;2023-01-30T10:40:48;99252.47;;;5.43;49.87
28267;BME280;15525;45.568;5.448;2023-01-30T10:43:39;99253.44;;;5.88;50.06
28267;BME280;15525;45.568;5.448;2023-01-30T10:46:25;99226.56;;;5.39;50.46
28267;BME280;15525;45.568;5.448;2023-01-30T10:49:07;99256.78;;;5.25;51.15
28267;BME280;15525;45.568;5.448;2023-01-30T10:54:14;99233.63;;;6.28;48.86
28267;BME280;15525;45.568;5.448;2023-01-30T10:57:49;99231.47;;;6.49;48.11
28267;BME280;15525;45.568;5.448;2023-01-30T11:00:00;99226.22;;;6.43;48.60
28267;BME280;15525;45.568;5.448;2023-01-30T11:04:58;99200.38;;;6.50;48.82
28267;BME280;15525;45.568;5.448;2023-01-30T11:07:26;99193.97;;;6.88;47.81
28267;BME280;15525;45.568;5.448;2023-01-30T11:09:56;99201.50;;;7.16;47.75
28267;BME280;15525;45.568;5.448;2023-01-30T11:12:22;99199.13;;;7.08;46.77
28267;BME280;15525;45.568;5.448;2023-01-30T11:14:56;99197.38;;;6.71;47.80
28267;BME280;15525;45.568;5.448;2023-01-30T11:17:32;99193.78;;;7.32;45.70
28267;BME280;15525;45.568;5.448;2023-01-30T11:20:06;99201.25;;;7.78;45.68
28267;BME280;15525;45.568;5.448;2023-01-30T11:22:34;99202.22;;;7.47;45.90
28267;BME280;15525;45.568;5.448;2023-01-30T11:25:04;99205.63;;;7.72;46.20
28267;BME280;15525;45.568;5.448;2023-01-30T11:27:32;99200.69;;;7.15;46.70
28267;BME280;15525;45.568;5.448;2023-01-30T11:32:31;99200.63;;;8.30;45.10
28267;BME280;15525;45.568;5.448;2023-01-30T11:35:14;99199.84;;;7.57;44.47
28267;BME280;15525;45.568;5.448;2023-01-30T11:37:44;99197.66;;;6.87;46.80
28267;BME280;15525;45.568;5.448;2023-01-30T11:42:58;99197.75;;;6.99;47.73
28267;BME280;15525;45.568;5.448;2023-01-30T11:45:24;99196.78;;;7.18;46.71
28267;BME280;15525;45.568;5.448;2023-01-30T11:48:00;99196.75;;;7.42;46.65
28267;BME280;15525;45.568;5.448;2023-01-30T11:50:38;99189.72;;;7.66;45.96
28267;BME280;15525;45.568;5.448;2023-01-30T11:53:25;99171.31;;;8.12;45.43
28267;BME280;15525;45.568;5.448;2023-01-30T11:55:54;99164.72;;;7.85;45.53
28267;BME280;15525;45.568;5.448;2023-01-30T11:58:21;99156.94;;;7.65;46.31
28267;BME280;15525;45.568;5.448;2023-01-30T12:00:47;99154.16;;;8.08;45.29
28267;BME280;15525;45.568;5.448;2023-01-30T12:03:17;99144.66;;;8.41;44.54
28267;BME280;15525;45.568;5.448;2023-01-30T12:05:45;99134.00;;;8.53;44.11
28267;BME280;15525;45.568;5.448;2023-01-30T12:10:47;99128.34;;;9.41;42.73
28267;BME280;15525;45.568;5.448;2023-01-30T12:13:34;99120.72;;;9.22;42.78
28267;BME280;15525;45.568;5.448;2023-01-30T12:16:21;99136.94;;;9.55;42.68
28267;BME280;15525;45.568;5.448;2023-01-30T12:22:15;99116.63;;;9.54;43.17
28267;BME280;15525;45.568;5.448;2023-01-30T12:24:24;99118.72;;;9.40;41.88
28267;BME280;15525;45.568;5.448;2023-01-30T12:26:57;99108.66;;;9.19;43.05
28267;BME280;15525;45.568;5.448;2023-01-30T12:29:40;99087.63;;;9.74;41.51
28267;BME280;15525;45.568;5.448;2023-01-30T12:32:15;99079.34;;;10.03;40.91
28267;BME280;15525;45.568;5.448;2023-01-30T12:34:42;99080.16;;;9.36;41.26
28267;BME280;15525;45.568;5.448;2023-01-30T12:40:47;99082.28;;;9.23;43.05
28267;BME280;15525;45.568;5.448;2023-01-30T12:43:27;99072.28;;;9.18;43.46
28267;BME280;15525;45.568;5.448;2023-01-30T12:51:31;99050.88;;;9.69;42.16
28267;BME280;15525;45.568;5.448;2023-01-30T13:07:19;99055.34;;;9.64;41.46
28267;BME280;15525;45.568;5.448;2023-01-30T13:12:41;99036.53;;;9.87;42.22
28267;BME280;15525;45.568;5.448;2023-01-30T13:18:03;99037.03;;;10.61;40.37
28267;BME280;15525;45.568;5.448;2023-01-30T13:21:00;99037.41;;;11.08;40.29
28267;BME280;15525;45.568;5.448;2023-01-30T13:26:25;99026.06;;;10.30;40.68
28267;BME280;15525;45.568;5.448;2023-01-30T13:28:55;99037.63;;;11.23;39.48
28267;BME280;15525;45.568;5.448;2023-01-30T13:31:25;99018.47;;;11.36;39.18
28267;BME280;15525;45.568;5.448;2023-01-30T13:34:04;98997.13;;;11.63;39.36
28267;BME280;15525;45.568;5.448;2023-01-30T13:36:42;99021.59;;;11.71;38.55
28267;BME280;15525;45.568;5.448;2023-01-30T13:39:35;99009.09;;;12.08;38.42
28267;BME280;15525;45.568;5.448;2023-01-30T13:42:01;99014.59;;;11.65;37.58
28267;BME280;15525;45.568;5.448;2023-01-30T13:44:31;99028.34;;;10.92;39.35
28267;BME280;15525;45.568;5.448;2023-01-30T13:47:10;99023.88;;;10.60;39.07
28267;BME280;15525;45.568;5.448;2023-01-30T13:49:50;99013.88;;;11.53;38.86
28267;BME280;15525;45.568;5.448;2023-01-30T13:52:33;99007.53;;;12.12;38.45
28267;BME280;15525;45.568;5.448;2023-01-30T13:57:49;99009.56;;;12.00;38.80
28267;BME280;15525;45.568;5.448;2023-01-30T14:00:28;99018.88;;;11.66;38.60
28267;BME280;15525;45.568;5.448;2023-01-30T14:08:29;99011.88;;;10.62;41.05
28267;BME280;15525;45.568;5.448;2023-01-30T14:10:57;99013.66;;;10.57;41.96
28267;BME280;15525;45.568;5.448;2023-01-30T14:13:25;99012.25;;;11.09;40.74
28267;BME280;15525;45.568;5.448;2023-01-30T14:16:00;99003.09;;;11.69;39.69
28267;BME280;15525;45.568;5.448;2023-01-30T14:18:28;98994.94;;;11.86;38.42
28267;BME280;15525;45.568;5.448;2023-01-30T14:23:38;99014.38;;;11.28;40.85
28267;BME280;15525;45.568;5.448;2023-01-30T14:26:04;99008.34;;;11.38;40.82
28267;BME280;15525;45.568;5.448;2023-01-30T14:30:59;99023.97;;;10.48;42.33
28267;BME280;15525;45.568;5.448;2023-01-30T14:38:23;99025.81;;;10.48;41.98
28267;BME280;15525;45.568;5.448;2023-01-30T14:45:53;99026.94;;;10.68;42.53
28267;BME280;15525;45.568;5.448;2023-01-30T14:54:02;99017.19;;;10.79;42.22
28267;BME280;15525;45.568;5.448;2023-01-30T14:56:57;99024.25;;;11.23;41.58
28267;BME280;15525;45.568;5.448;2023-01-30T15:02:28;99020.50;;;11.02;42.01